Time;durP1;ratioP1;P1;durP2;ratioP2;P2;SDS_P1;SDS_P2;PMS_P1;PMS_P2;Temp;Humidity;BMP_temperature;BMP_pressure;BME280_temperature;BME280_humidity;BME280_pressure;Samples;Min_cycle;Max_cycle;Signal;HPM_P1;HPM_P2
2023/11/24 00:01:27;;;;;;;1.37;0.60;;;;;;;5.69;80.62;97857.53;5112406;27;20659;-63
2023/11/24 00:03:58;;;;;;;3.03;1.17;;;;;;;5.71;79.83;97883.06;5102629;27;20274;-63
2023/11/24 00:06:26;;;;;;;1.97;0.83;;;;;;;5.71;79.92;97872.84;5108966;27;20642;-68
2023/11/24 00:08:54;;;;;;;3.50;1.10;;;;;;;5.74;79.35;97865.94;5104123;27;20661;-64
2023/11/24 00:11:24;;;;;;;1.43;0.60;;;;;;;5.75;79.84;97857.38;5115744;27;20243;-61
2023/11/24 00:13:52;;;;;;;4.43;1.30;;;;;;;5.75;79.66;97849.72;5121716;27;20249;-61
2023/11/24 00:16:20;;;;;;;2.37;0.70;;;;;;;5.76;79.12;97871.81;5119186;27;20240;-61
2023/11/24 00:18:50;;;;;;;1.87;0.80;;;;;;;5.79;79.90;97876.03;5112460;27;20200;-61
2023/11/24 00:21:18;;;;;;;2.13;0.90;;;;;;;5.79;79.57;97889.63;5117441;27;20290;-61
2023/11/24 00:23:46;;;;;;;3.63;1.13;;;;;;;5.81;79.26;97885.31;5120587;27;20566;-62
2023/11/24 00:26:17;;;;;;;4.83;1.20;;;;;;;5.82;79.09;97881.06;5117023;27;20669;-64
2023/11/24 00:28:45;;;;;;;3.30;1.13;;;;;;;5.84;79.47;97869.06;5099821;28;20231;-67
2023/11/24 00:31:13;;;;;;;1.43;0.80;;;;;;;5.84;79.13;97876.72;5118533;27;20231;-62
2023/11/24 00:33:41;;;;;;;3.37;1.63;;;;;;;5.81;79.02;97877.63;5120644;27;20685;-63
2023/11/24 00:36:11;;;;;;;4.00;1.13;;;;;;;5.86;78.84;97880.09;5115041;27;20223;-65
2023/11/24 00:38:39;;;;;;;4.13;1.17;;;;;;;5.87;78.87;97878.38;5102697;27;20212;-65
2023/11/24 00:41:08;;;;;;;5.17;1.33;;;;;;;5.88;79.03;97867.25;5114015;27;20551;-62
2023/11/24 00:43:37;;;;;;;4.20;1.20;;;;;;;5.88;78.88;97880.88;5118372;27;20211;-64
2023/11/24 00:46:06;;;;;;;4.10;1.30;;;;;;;5.85;78.61;97872.44;5111307;27;20196;-61
2023/11/24 00:48:37;;;;;;;2.63;1.10;;;;;;;5.87;79.25;97876.66;5113111;27;20278;-60
2023/11/24 00:51:06;;;;;;;2.63;0.90;;;;;;;5.86;78.60;97877.53;5115701;27;20671;-62
2023/11/24 00:53:35;;;;;;;4.43;1.30;;;;;;;5.86;78.92;97872.44;5114082;27;20204;-63
2023/11/24 00:56:04;;;;;;;3.83;1.07;;;;;;;5.83;78.67;97875.06;5117826;27;20707;-61
2023/11/24 00:58:32;;;;;;;4.57;1.40;;;;;;;5.79;79.11;97871.75;5113530;27;20567;-62
2023/11/24 01:01:03;;;;;;;3.97;1.40;;;;;;;5.76;79.63;97882.06;5122788;27;20205;-61
2023/11/24 01:03:32;;;;;;;3.63;1.03;;;;;;;5.72;79.27;97875.34;5116116;27;20236;-65
2023/11/24 01:06:00;;;;;;;4.73;1.03;;;;;;;5.67;79.05;97872.09;5112082;27;20341;-63
2023/11/24 01:08:27;;;;;;;4.53;1.00;;;;;;;5.62;79.48;97863.69;5102068;27;20214;-66
2023/11/24 01:10:57;;;;;;;6.33;1.00;;;;;;;5.60;79.88;97872.28;5115524;27;20199;-64
2023/11/24 01:13:26;;;;;;;5.37;1.60;;;;;;;5.56;79.79;97879.22;5117160;27;20666;-61
2023/11/24 01:15:54;;;;;;;4.10;1.07;;;;;;;5.49;79.73;97873.41;5114587;27;20242;-63
2023/11/24 01:18:25;;;;;;;3.03;1.00;;;;;;;5.48;80.23;97881.94;5110234;27;20219;-69
2023/11/24 01:20:53;;;;;;;6.03;1.33;;;;;;;5.46;80.43;97882.88;5109425;27;20647;-67
2023/11/24 01:23:22;;;;;;;5.63;1.47;;;;;;;5.41;80.24;97865.09;5111561;27;20234;-66
2023/11/24 01:25:53;;;;;;;2.30;1.13;;;;;;;5.41;79.98;97879.56;5105275;27;20211;-65
2023/11/24 01:28:23;;;;;;;5.47;1.37;;;;;;;5.37;79.91;97888.19;5115004;27;20196;-69
2023/11/24 01:30:51;;;;;;;3.80;1.00;;;;;;;5.38;78.81;97880.50;5118068;27;20675;-66
2023/11/24 01:33:25;;;;;;;1.57;0.83;;;;;;;5.43;79.22;97875.28;5118434;27;20196;-66
2023/11/24 01:35:55;;;;;;;7.10;1.20;;;;;;;5.44;78.85;97889.72;5120958;28;20196;-66
2023/11/24 01:38:24;;;;;;;4.13;1.20;;;;;;;5.48;78.35;97914.28;5125718;28;20233;-68
2023/11/24 01:40:52;;;;;;;1.53;0.67;;;;;;;5.48;78.13;97911.75;5108107;28;20638;-68
2023/11/24 01:43:20;;;;;;;0.87;0.67;;;;;;;5.16;76.83;97915.94;5096674;28;20197;-67
2023/11/24 01:45:49;;;;;;;1.40;0.30;;;;;;;4.81;78.29;97914.22;5114343;28;20203;-66
2023/11/24 01:48:19;;;;;;;2.03;0.30;;;;;;;4.29;80.19;97916.19;5101897;28;20192;-68
2023/11/24 01:50:48;;;;;;;1.53;0.47;;;;;;;4.03;81.58;97906.50;5115254;28;20292;-66
2023/11/24 01:53:16;;;;;;;0.83;0.30;;;;;;;3.76;84.00;97918.09;5110050;28;20313;-66
2023/11/24 01:55:45;;;;;;;1.73;0.40;;;;;;;3.66;84.52;97914.00;5115249;27;20663;-69
2023/11/24 01:58:13;;;;;;;0.50;0.40;;;;;;;3.62;85.30;97910.69;5113834;27;20598;-67
2023/11/24 02:00:41;;;;;;;0.53;0.40;;;;;;;3.63;86.46;97903.88;5117070;27;20214;-69
2023/11/24 02:03:11;;;;;;;0.70;0.50;;;;;;;3.62;85.57;97899.66;5116940;27;20222;-66
2023/11/24 02:05:39;;;;;;;2.57;0.60;;;;;;;3.66;85.11;97892.81;5123637;27;20645;-67
2023/11/24 02:08:07;;;;;;;0.87;0.40;;;;;;;3.75;86.00;97882.44;5113110;27;20355;-65
2023/11/24 02:10:35;;;;;;;2.03;0.60;;;;;;;3.86;85.83;97881.34;5117538;27;20196;-65
2023/11/24 02:13:03;;;;;;;1.30;0.67;;;;;;;3.98;84.32;97889.66;5124348;27;20215;-66
2023/11/24 02:15:31;;;;;;;2.50;0.60;;;;;;;4.08;84.59;97886.03;5126782;27;20263;-66
2023/11/24 02:18:00;;;;;;;2.47;1.10;;;;;;;4.17;84.21;97883.31;5115768;27;21037;-69
2023/11/24 02:20:33;;;;;;;1.00;0.70;;;;;;;4.24;82.83;97899.31;5122023;27;20657;-67
2023/11/24 02:23:02;;;;;;;1.23;0.73;;;;;;;4.33;82.49;97892.28;5123554;27;20192;-68
2023/11/24 02:25:30;;;;;;;1.40;0.73;;;;;;;4.40;82.38;97898.09;5115297;27;20265;-67
2023/11/24 02:27:58;;;;;;;2.77;0.73;;;;;;;4.46;83.46;97908.19;5124316;27;20196;-63
2023/11/24 02:30:26;;;;;;;1.30;0.70;;;;;;;4.48;83.49;97908.13;5123377;27;20195;-63
2023/11/24 02:32:54;;;;;;;2.53;1.00;;;;;;;4.52;83.58;97900.38;5122858;27;20200;-63
2023/11/24 02:35:22;;;;;;;4.87;1.10;;;;;;;4.51;83.51;97900.44;5114130;27;20218;-64
2023/11/24 02:37:50;;;;;;;3.07;1.07;;;;;;;4.50;83.70;97893.66;5120651;27;20216;-62
2023/11/24 02:40:19;;;;;;;5.33;1.00;;;;;;;4.45;83.58;97895.44;5114941;27;20218;-63
2023/11/24 02:42:47;;;;;;;2.53;1.07;;;;;;;4.33;83.50;97884.66;5112995;27;20211;-64
2023/11/24 02:45:15;;;;;;;2.20;1.00;;;;;;;4.36;84.60;97892.25;5120938;27;20203;-63
2023/11/24 02:47:43;;;;;;;2.80;1.10;;;;;;;4.31;84.57;97881.31;5127162;27;20195;-61
2023/11/24 02:50:12;;;;;;;5.63;1.27;;;;;;;4.30;83.97;97896.63;5110304;27;20203;-65
2023/11/24 02:52:40;;;;;;;3.70;1.00;;;;;;;4.27;85.45;97895.00;5106994;27;20647;-61
2023/11/24 02:55:10;;;;;;;3.00;1.03;;;;;;;4.25;84.76;97886.53;5121185;27;20200;-64
2023/11/24 02:57:39;;;;;;;4.47;0.80;;;;;;;4.22;84.94;97880.66;5121206;27;20220;-63
2023/11/24 03:00:09;;;;;;;1.83;0.90;;;;;;;4.20;84.47;97875.59;5104400;27;20241;-63
2023/11/24 03:02:37;;;;;;;3.07;1.40;;;;;;;4.19;85.04;97884.09;5118467;27;20204;-63
2023/11/24 03:05:06;;;;;;;3.60;1.10;;;;;;;4.18;83.75;97867.13;5121582;27;20291;-63
2023/11/24 03:07:34;;;;;;;2.83;1.20;;;;;;;4.15;84.20;97869.75;5114236;28;20200;-63
2023/11/24 03:10:03;;;;;;;3.67;1.23;;;;;;;4.14;83.60;97868.06;5120820;27;20211;-63
2023/11/24 03:12:31;;;;;;;4.83;1.23;;;;;;;4.14;85.02;97862.97;5122419;27;20242;-65
2023/11/24 03:15:00;;;;;;;3.13;1.33;;;;;;;4.15;84.31;97868.91;5129771;27;20251;-63
2023/11/24 03:17:28;;;;;;;3.80;1.67;;;;;;;4.13;84.47;97850.28;5107123;27;20222;-62
2023/11/24 03:19:56;;;;;;;7.33;1.73;;;;;;;4.14;83.57;97868.06;5116135;27;20192;-63
2023/11/24 03:22:24;;;;;;;3.47;1.30;;;;;;;4.17;84.00;97865.47;5115654;27;20249;-64
2023/11/24 03:24:52;;;;;;;4.07;1.10;;;;;;;4.18;82.53;97861.19;5115742;27;20291;-65
2023/11/24 03:27:20;;;;;;;5.10;1.07;;;;;;;4.21;82.29;97864.53;5119576;27;20626;-66
2023/11/24 03:29:48;;;;;;;3.43;1.00;;;;;;;4.24;82.92;97854.28;5109992;27;20207;-62
2023/11/24 03:32:17;;;;;;;4.90;1.40;;;;;;;4.27;81.97;97854.22;5116515;27;20200;-63
2023/11/24 03:34:45;;;;;;;5.13;1.37;;;;;;;4.31;82.00;97858.38;5110997;27;20633;-63
2023/11/24 03:37:13;;;;;;;2.87;1.50;;;;;;;4.37;81.01;97847.19;5123789;27;20643;-67
2023/11/24 03:39:41;;;;;;;2.93;1.13;;;;;;;4.41;80.21;97845.41;5121392;27;20216;-68
2023/11/24 03:42:09;;;;;;;6.70;1.27;;;;;;;4.43;79.98;97849.59;5114645;27;20200;-67
2023/11/24 03:44:38;;;;;;;3.47;0.93;;;;;;;4.48;80.22;97865.63;5117467;27;20235;-67
2023/11/24 03:47:06;;;;;;;3.83;1.20;;;;;;;4.49;78.89;97869.00;5111094;28;20215;-66
2023/11/24 03:49:36;;;;;;;7.27;1.73;;;;;;;4.57;79.64;97851.84;5117118;27;20655;-67
2023/11/24 03:52:04;;;;;;;4.73;1.27;;;;;;;4.57;78.86;97856.94;5109309;27;20260;-67
2023/11/24 03:54:32;;;;;;;3.93;1.07;;;;;;;4.59;78.59;97857.75;5117306;27;20279;-65
2023/11/24 03:57:01;;;;;;;8.43;1.47;;;;;;;4.59;79.21;97856.03;5110791;28;20231;-65
2023/11/24 03:59:28;;;;;;;4.87;1.63;;;;;;;4.62;78.53;97865.31;5117597;27;20238;-66
2023/11/24 04:01:56;;;;;;;6.33;1.70;;;;;;;4.62;79.43;97861.94;5117561;27;20655;-69
2023/11/24 04:04:24;;;;;;;5.97;1.43;;;;;;;4.67;78.74;97860.94;5119505;27;20546;-69
2023/11/24 04:06:54;;;;;;;4.33;2.07;;;;;;;4.68;77.97;97861.81;5118630;27;20231;-66
2023/11/24 04:09:22;;;;;;;3.90;1.30;;;;;;;4.65;77.92;97852.50;5107301;27;20240;-66
2023/11/24 04:11:50;;;;;;;5.50;1.93;;;;;;;4.67;78.94;97860.13;5121016;27;20346;-67
2023/11/24 04:14:18;;;;;;;4.57;1.43;;;;;;;4.64;78.00;97855.94;5114552;27;20670;-67
2023/11/24 04:16:45;;;;;;;6.60;1.87;;;;;;;4.61;78.27;97845.81;5127980;27;20721;-65
2023/11/24 04:19:13;;;;;;;4.23;1.20;;;;;;;4.62;78.03;97847.47;5115078;27;20306;-65
2023/11/24 04:21:41;;;;;;;5.93;1.50;;;;;;;4.58;77.36;97825.47;5122994;27;20260;-67
2023/11/24 04:24:11;;;;;;;2.57;0.83;;;;;;;4.54;77.94;97828.97;5118212;27;20662;-67
2023/11/24 04:26:41;;;;;;;3.63;1.30;;;;;;;4.49;78.12;97835.88;5109260;27;20574;-66
2023/11/24 04:29:09;;;;;;;5.10;1.50;;;;;;;4.45;78.98;97824.91;5119407;27;20271;-66
2023/11/24 04:31:36;;;;;;;3.97;1.50;;;;;;;4.42;79.32;97824.13;5120901;27;20205;-67
2023/11/24 04:34:05;;;;;;;3.17;1.00;;;;;;;4.39;78.74;97835.25;5116169;27;20204;-67
2023/11/24 04:36:33;;;;;;;5.20;1.43;;;;;;;4.31;78.66;97819.28;5127045;27;20282;-67
2023/11/24 04:39:00;;;;;;;5.57;1.20;;;;;;;4.33;78.77;97833.66;5116188;27;20212;-66
2023/11/24 04:41:30;;;;;;;6.47;1.30;;;;;;;4.31;78.41;97837.13;5130803;27;20740;-67
2023/11/24 04:43:58;;;;;;;4.93;1.40;;;;;;;4.33;78.27;97843.03;5114884;27;20348;-69
2023/11/24 04:46:26;;;;;;;5.70;1.53;;;;;;;4.34;78.06;97827.72;5099958;27;20218;-65
2023/11/24 04:48:54;;;;;;;3.93;1.10;;;;;;;4.35;77.53;97831.94;5104973;27;20662;-66
2023/11/24 04:51:21;;;;;;;6.37;1.23;;;;;;;4.35;77.27;97831.94;5117778;27;20196;-65
2023/11/24 04:53:49;;;;;;;4.63;1.13;;;;;;;4.33;77.32;97832.81;5110173;27;20199;-64
2023/11/24 04:56:17;;;;;;;4.27;1.70;;;;;;;4.32;78.43;97834.53;5106164;27;20736;-66
2023/11/24 04:58:46;;;;;;;2.10;1.20;;;;;;;4.29;78.72;97839.69;5122849;27;20241;-65
2023/11/24 05:01:16;;;;;;;3.77;1.47;;;;;;;4.27;78.80;97845.69;5108491;27;20209;-66
2023/11/24 05:03:44;;;;;;;3.57;1.57;;;;;;;4.22;77.72;97848.34;5106833;27;20681;-66
2023/11/24 05:06:12;;;;;;;3.63;1.20;;;;;;;4.21;77.88;97844.13;5112891;27;20204;-65
2023/11/24 05:08:40;;;;;;;5.17;1.30;;;;;;;4.19;76.96;97861.16;5112208;27;20240;-65
2023/11/24 05:11:08;;;;;;;5.43;1.30;;;;;;;4.20;77.33;97860.31;5113424;27;20195;-65
2023/11/24 05:13:36;;;;;;;4.50;1.00;;;;;;;4.21;77.97;97848.41;5119529;27;20212;-67
2023/11/24 05:16:06;;;;;;;2.97;0.90;;;;;;;4.21;77.38;97861.97;5114732;27;20699;-65
2023/11/24 05:18:34;;;;;;;3.03;1.03;;;;;;;4.21;76.81;97854.34;5112315;28;20311;-67
2023/11/24 05:21:02;;;;;;;3.93;1.20;;;;;;;4.22;76.13;97878.09;5103675;27;20340;-66
2023/11/24 05:23:30;;;;;;;4.10;0.97;;;;;;;4.22;77.78;97873.00;5119944;27;20581;-66
2023/11/24 05:25:58;;;;;;;6.03;1.70;;;;;;;4.20;77.33;97878.16;5112408;28;20295;-67
2023/11/24 05:28:26;;;;;;;4.13;1.10;;;;;;;4.20;76.98;97879.84;5124029;27;20200;-67
2023/11/24 05:30:54;;;;;;;3.97;1.07;;;;;;;4.14;77.29;97874.88;5113973;27;20304;-67
2023/11/24 05:33:23;;;;;;;4.37;1.10;;;;;;;4.14;77.09;97883.38;5111721;27;20196;-68
2023/11/24 05:35:51;;;;;;;4.10;1.20;;;;;;;4.14;77.61;97885.91;5112643;28;20204;-68
2023/11/24 05:38:19;;;;;;;3.37;1.17;;;;;;;4.12;76.54;97872.34;5111790;28;20207;-67
2023/11/24 05:40:48;;;;;;;2.07;1.03;;;;;;;4.13;77.89;97883.41;5110707;28;20212;-67
2023/11/24 05:43:17;;;;;;;2.03;0.97;;;;;;;4.10;76.50;97879.19;5112462;28;20599;-66
2023/11/24 05:45:47;;;;;;;3.77;1.10;;;;;;;4.08;77.20;97889.41;5112823;28;20203;-67
2023/11/24 05:48:15;;;;;;;2.90;1.00;;;;;;;4.06;78.13;97892.88;5102736;28;20202;-69
2023/11/24 05:50:44;;;;;;;4.33;1.20;;;;;;;4.06;78.67;97903.06;5114793;28;20203;-65
2023/11/24 05:53:12;;;;;;;4.60;1.23;;;;;;;4.07;77.92;97904.75;5114698;28;20801;-67
2023/11/24 05:55:40;;;;;;;5.57;1.37;;;;;;;4.08;78.78;97896.22;5102561;28;20218;-67
2023/11/24 05:58:08;;;;;;;3.87;1.50;;;;;;;4.07;78.47;97886.91;5106970;28;20559;-68
2023/11/24 06:00:36;;;;;;;3.83;1.20;;;;;;;4.02;78.87;97886.16;5111478;28;20219;-70
2023/11/24 06:03:04;;;;;;;4.97;1.43;;;;;;;3.99;78.83;97886.22;5108958;28;20192;-69
2023/11/24 06:05:32;;;;;;;3.17;1.40;;;;;;;3.95;79.05;97889.72;5120923;28;21911;-72
2023/11/24 06:08:04;;;;;;;7.30;1.80;;;;;;;3.94;80.28;97893.97;5111553;28;20693;-72
2023/11/24 06:10:32;;;;;;;4.67;1.53;;;;;;;3.91;79.73;97893.19;5104854;28;20210;-67
2023/11/24 06:13:00;;;;;;;5.40;1.50;;;;;;;3.93;79.99;97897.38;5112252;28;20201;-64
2023/11/24 06:15:29;;;;;;;5.97;1.30;;;;;;;3.92;78.30;97907.59;5117130;28;20599;-69
2023/11/24 06:17:57;;;;;;;10.53;2.27;;;;;;;3.91;79.17;97898.28;5106702;28;20216;-70
2023/11/24 06:20:25;;;;;;;5.40;1.90;;;;;;;3.92;79.74;97915.25;5118939;28;20689;-69
2023/11/24 06:22:53;;;;;;;4.27;1.80;;;;;;;3.87;78.31;97913.63;5107845;28;20231;-70
2023/11/24 06:25:22;;;;;;;7.00;1.90;;;;;;;3.85;78.53;97927.25;5107447;28;20656;-68
2023/11/24 06:27:50;;;;;;;8.87;1.57;;;;;;;3.82;78.11;97915.41;5107645;28;20258;-68
2023/11/24 06:30:18;;;;;;;7.13;1.93;;;;;;;3.81;77.90;97918.81;5103584;28;20251;-69
2023/11/24 06:32:46;;;;;;;5.67;1.50;;;;;;;3.79;78.60;97925.66;5116402;28;20192;-67
2023/11/24 06:35:15;;;;;;;6.00;1.67;;;;;;;3.73;77.33;97925.78;5104315;28;20614;-69
2023/11/24 06:37:43;;;;;;;3.53;1.60;;;;;;;3.68;77.34;97927.53;5114276;28;20219;-70
2023/11/24 06:40:13;;;;;;;4.87;1.50;;;;;;;3.70;76.54;97927.53;5112212;27;20285;-69
2023/11/24 06:42:43;;;;;;;6.23;1.73;;;;;;;3.71;77.44;97932.59;5111950;27;20290;-66
2023/11/24 06:45:13;;;;;;;4.10;1.63;;;;;;;3.74;77.82;97937.63;5112121;27;20200;-67
2023/11/24 06:47:42;;;;;;;3.73;1.47;;;;;;;3.72;76.72;97926.66;5119107;27;20572;-70
2023/11/24 06:50:12;;;;;;;5.80;1.73;;;;;;;3.70;77.32;97930.91;5109994;27;20668;-67
2023/11/24 06:52:40;;;;;;;7.77;1.60;;;;;;;3.75;76.86;97944.41;5114612;27;20630;-66
2023/11/24 06:55:10;;;;;;;5.60;2.17;;;;;;;3.77;77.01;97934.19;5114285;27;20196;-70
2023/11/24 06:57:39;;;;;;;6.77;1.60;;;;;;;3.77;76.56;97935.03;5107282;27;20224;-66
2023/11/24 07:00:16;;;;;;;6.20;2.03;;;;;;;3.79;77.94;97920.56;5110756;27;20257;-66
2023/11/24 07:02:46;;;;;;;7.03;1.60;;;;;;;3.82;76.66;97930.69;5109635;27;20211;-65
2023/11/24 07:05:15;;;;;;;8.00;1.47;;;;;;;3.80;76.74;97932.44;5123359;27;20277;-67
2023/11/24 07:07:43;;;;;;;6.93;1.50;;;;;;;3.85;76.21;97935.72;5108074;27;20255;-66
2023/11/24 07:10:13;;;;;;;5.40;1.90;;;;;;;3.90;76.79;97938.19;5139000;27;20207;-65
2023/11/24 07:12:43;;;;;;;5.17;1.63;;;;;;;3.93;76.08;97935.56;5111412;27;20295;-67
2023/11/24 07:15:13;;;;;;;4.53;2.07;;;;;;;3.93;75.76;97932.19;5115733;27;20240;-67
2023/11/24 07:17:42;;;;;;;4.10;1.60;;;;;;;3.93;76.79;97939.84;5114414;27;20313;-67
2023/11/24 07:20:12;;;;;;;1.27;1.00;;;;;;;3.94;75.44;97942.38;5109644;27;20345;-67
2023/11/24 07:22:41;;;;;;;6.17;1.70;;;;;;;3.91;75.87;97944.97;5105983;27;20240;-67
2023/11/24 07:25:11;;;;;;;5.33;1.40;;;;;;;3.94;75.28;97944.06;5117077;27;20204;-66
2023/11/24 07:27:39;;;;;;;6.40;1.60;;;;;;;3.94;76.00;97938.97;5111079;28;20204;-67
2023/11/24 07:30:09;;;;;;;5.33;1.80;;;;;;;3.95;75.70;97935.56;5106317;28;20215;-67
2023/11/24 07:32:39;;;;;;;7.57;2.10;;;;;;;3.98;76.00;97940.59;5114216;28;20223;-68
2023/11/24 07:35:08;;;;;;;8.00;2.30;;;;;;;3.99;73.79;97943.13;5114097;28;20231;-67
2023/11/24 07:37:36;;;;;;;5.83;1.57;;;;;;;3.97;75.06;97934.66;5113130;27;20211;-67
2023/11/24 07:40:07;;;;;;;6.73;1.77;;;;;;;3.96;74.35;97921.94;5120025;27;20239;-68
2023/11/24 07:42:36;;;;;;;8.07;2.40;;;;;;;4.03;72.92;97933.72;5114460;27;20671;-65
2023/11/24 07:45:05;;;;;;;5.90;2.10;;;;;;;4.05;74.26;97931.94;5102183;27;20535;-68
2023/11/24 07:47:33;;;;;;;5.20;1.80;;;;;;;4.01;73.70;97935.44;5113662;27;20605;-66
2023/11/24 07:50:03;;;;;;;8.03;1.50;;;;;;;4.02;74.34;97942.22;5109307;27;20594;-66
2023/11/24 07:52:31;;;;;;;7.10;1.90;;;;;;;4.01;72.50;97936.25;5116083;27;20199;-68
2023/11/24 07:54:59;;;;;;;9.10;2.43;;;;;;;3.97;73.21;97934.66;5109404;27;20252;-65
2023/11/24 07:57:28;;;;;;;7.50;1.70;;;;;;;3.98;74.03;97915.13;5111767;27;20249;-65
2023/11/24 07:59:56;;;;;;;8.53;1.90;;;;;;;4.00;72.47;97915.91;5120715;27;20291;-64
2023/11/24 08:02:25;;;;;;;4.77;1.63;;;;;;;3.98;73.25;97935.50;5107184;27;20196;-64
2023/11/24 08:04:53;;;;;;;3.93;1.60;;;;;;;3.92;72.53;97921.16;5102168;27;20647;-65
2023/11/24 08:07:23;;;;;;;5.47;1.60;;;;;;;3.88;74.14;97934.84;5105050;27;20253;-64
2023/11/24 08:09:51;;;;;;;4.87;1.53;;;;;;;3.86;72.27;97921.28;5116685;27;20650;-65
2023/11/24 08:12:19;;;;;;;6.03;1.73;;;;;;;3.91;74.29;97931.41;5105099;27;20205;-67
2023/11/24 08:14:48;;;;;;;10.87;1.80;;;;;;;3.88;73.87;97915.28;5104475;27;20247;-65
2023/11/24 08:17:16;;;;;;;8.90;1.90;;;;;;;3.94;72.20;97928.78;5104380;28;20203;-66
2023/11/24 08:19:46;;;;;;;6.37;1.60;;;;;;;3.90;72.29;97927.16;5104620;27;20566;-64
2023/11/24 08:22:14;;;;;;;6.10;1.63;;;;;;;3.91;72.06;97921.22;5097164;28;20252;-65
2023/11/24 08:24:44;;;;;;;8.00;1.90;;;;;;;3.94;72.68;97928.78;5100142;27;20543;-66
2023/11/24 08:27:12;;;;;;;5.93;1.97;;;;;;;3.91;71.50;97921.22;5107299;27;20212;-64
2023/11/24 08:29:40;;;;;;;9.17;2.00;;;;;;;3.94;73.18;97918.59;5105432;27;20204;-63
2023/11/24 08:32:10;;;;;;;8.97;1.97;;;;;;;4.02;71.63;97912.47;5120707;27;20291;-63
2023/11/24 08:34:38;;;;;;;5.67;1.80;;;;;;;4.10;72.77;97909.78;5099808;27;20212;-62
2023/11/24 08:37:06;;;;;;;4.53;1.50;;;;;;;4.13;70.64;97904.63;5103814;27;20676;-64
2023/11/24 08:39:34;;;;;;;5.37;1.83;;;;;;;4.15;70.58;97895.22;5111296;27;20211;-64
2023/11/24 08:42:05;;;;;;;5.67;1.97;;;;;;;4.24;71.87;97897.59;5099597;27;20248;-63
2023/11/24 08:44:33;;;;;;;4.30;1.90;;;;;;;4.28;70.73;97904.31;5108990;27;20192;-63
2023/11/24 08:47:04;;;;;;;5.83;2.07;;;;;;;4.33;69.73;97886.38;5100999;27;20200;-64
2023/11/24 08:49:33;;;;;;;5.03;1.40;;;;;;;4.39;70.37;97890.50;5105240;27;20214;-64
2023/11/24 08:52:03;;;;;;;11.80;1.83;;;;;;;4.41;70.90;97887.03;5114880;27;20212;-64
2023/11/24 08:54:31;;;;;;;6.73;2.10;;;;;;;4.49;69.92;97899.63;5113689;27;20290;-67
2023/11/24 08:56:59;;;;;;;17.13;5.07;;;;;;;4.58;70.42;97891.78;5105088;27;20196;-64
2023/11/24 08:59:29;;;;;;;6.67;1.67;;;;;;;4.67;69.21;97886.44;5110975;27;20200;-65
2023/11/24 09:01:58;;;;;;;5.40;1.60;;;;;;;4.69;69.78;97889.00;5103071;27;20208;-64
2023/11/24 09:04:27;;;;;;;12.07;1.70;;;;;;;4.68;69.00;97880.50;5104448;27;20204;-65
2023/11/24 09:06:56;;;;;;;6.73;1.93;;;;;;;4.73;68.28;97886.31;5108252;27;20216;-64
2023/11/24 09:09:27;;;;;;;11.27;2.17;;;;;;;4.68;69.31;97882.22;5105637;27;20192;-64
2023/11/24 09:11:55;;;;;;;6.60;1.93;;;;;;;4.76;69.45;97899.00;5111162;27;20231;-66
2023/11/24 09:14:23;;;;;;;7.83;1.53;;;;;;;4.78;67.89;97894.69;5107195;27;20602;-66
2023/11/24 09:16:56;;;;;;;9.53;2.10;;;;;;;4.76;68.78;97886.25;5106567;27;20203;-64
2023/11/24 09:19:24;;;;;;;3.77;1.43;;;;;;;4.75;69.10;97878.63;5101018;27;20203;-64
2023/11/24 09:21:52;;;;;;;5.10;1.87;;;;;;;4.74;68.62;97895.66;5104913;27;20704;-67
2023/11/24 09:24:20;;;;;;;4.90;1.40;;;;;;;4.65;67.49;97882.28;5117053;27;20203;-65
2023/11/24 09:26:48;;;;;;;5.90;1.33;;;;;;;4.57;67.61;97885.84;5113055;27;20215;-64
2023/11/24 09:29:16;;;;;;;4.73;1.50;;;;;;;4.51;67.51;97880.03;5114882;27;20288;-70
2023/11/24 09:31:44;;;;;;;7.07;2.07;;;;;;;4.53;68.22;97875.75;5110267;27;20191;-68
2023/11/24 09:34:13;;;;;;;7.90;1.90;;;;;;;4.52;68.58;97879.16;5106092;27;20597;-68
2023/11/24 09:36:42;;;;;;;4.60;1.83;;;;;;;4.55;68.32;97891.84;5109932;27;20215;-68
2023/11/24 09:39:10;;;;;;;5.07;1.43;;;;;;;4.56;67.46;97885.84;5114128;28;20287;-68
2023/11/24 09:41:40;;;;;;;6.60;2.10;;;;;;;4.53;66.68;97868.09;5111163;28;20204;-68
2023/11/24 09:44:10;;;;;;;6.90;1.93;;;;;;;4.51;66.55;97862.19;5113313;28;20231;-67
2023/11/24 09:46:40;;;;;;;3.43;1.70;;;;;;;4.52;66.81;97857.03;5103446;28;20300;-65
2023/11/24 09:49:23;;;;;;;4.10;1.60;;;;;;;4.54;67.03;97865.50;5112807;28;20202;-68
2023/11/24 09:51:51;;;;;;;5.90;1.67;;;;;;;4.53;65.61;97852.81;5113627;28;20555;-67
2023/11/24 09:54:21;;;;;;;6.57;1.77;;;;;;;4.51;66.10;97854.53;5109821;28;20208;-66
2023/11/24 09:56:49;;;;;;;4.73;1.70;;;;;;;4.47;65.45;97858.03;5105991;27;20253;-64
2023/11/24 09:59:18;;;;;;;5.43;1.47;;;;;;;4.44;65.68;97864.03;5103211;28;20555;-65
2023/11/24 10:01:48;;;;;;;7.60;1.50;;;;;;;4.44;65.89;97853.81;5110852;27;20731;-65
2023/11/24 10:04:16;;;;;;;3.27;1.30;;;;;;;4.51;66.17;97857.09;5113636;28;20212;-69
2023/11/24 10:06:49;;;;;;;5.27;1.47;;;;;;;4.55;65.81;97856.97;5110423;28;20200;-65
2023/11/24 10:09:25;;;;;;;4.67;1.23;;;;;;;4.62;65.65;97850.03;5112554;28;20282;-65
2023/11/24 10:11:53;;;;;;;3.87;1.53;;;;;;;4.67;64.60;97845.66;5105260;28;20634;-64
2023/11/24 10:14:22;;;;;;;3.10;1.27;;;;;;;4.73;64.45;97845.50;5106675;27;20270;-66
2023/11/24 10:16:50;;;;;;;3.73;1.03;;;;;;;4.80;63.26;97854.69;5102894;27;20282;-66
2023/11/24 10:19:18;;;;;;;4.00;1.20;;;;;;;4.93;63.78;97851.84;5113559;27;20995;-66
2023/11/24 10:21:53;;;;;;;4.90;1.23;;;;;;;4.98;63.88;97855.13;5112402;27;20215;-65
2023/11/24 10:24:25;;;;;;;6.07;1.60;;;;;;;4.91;64.07;97846.78;5115903;27;20188;-68
2023/11/24 10:26:53;;;;;;;5.33;1.30;;;;;;;4.80;63.36;97847.03;5105817;27;20572;-66
2023/11/24 10:29:24;;;;;;;1.37;0.83;;;;;;;4.77;64.23;97854.75;5121150;27;20344;-63
2023/11/24 10:31:52;;;;;;;3.77;1.30;;;;;;;4.74;63.91;97852.28;5108720;27;20265;-65
2023/11/24 10:34:21;;;;;;;4.13;1.50;;;;;;;4.73;63.73;97849.78;5106232;28;20775;-65
2023/11/24 10:36:49;;;;;;;3.93;1.10;;;;;;;4.67;64.46;97845.66;5113520;27;20218;-65
2023/11/24 10:39:22;;;;;;;2.67;1.37;;;;;;;4.66;64.91;97843.97;5108185;28;20283;-66
2023/11/24 10:41:54;;;;;;;4.20;1.87;;;;;;;4.59;63.65;97843.28;5111626;27;20221;-64
2023/11/24 10:44:24;;;;;;;4.70;2.10;;;;;;;4.59;64.72;97850.09;5114091;27;20200;-63
2023/11/24 10:47:00;;;;;;;3.43;1.30;;;;;;;4.63;64.59;97846.59;5114138;27;20211;-65
2023/11/24 10:49:35;;;;;;;3.80;1.60;;;;;;;4.68;64.96;97849.06;5102072;27;20609;-64
2023/11/24 10:52:10;;;;;;;3.17;1.80;;;;;;;4.74;65.08;97841.25;5109432;27;20210;-68
2023/11/24 10:54:46;;;;;;;5.70;1.30;;;;;;;4.78;64.25;97848.78;5120019;27;20195;-65
2023/11/24 10:57:16;;;;;;;4.13;1.10;;;;;;;4.87;63.40;97862.22;5115932;27;20628;-67
2023/11/24 10:59:45;;;;;;;4.97;1.20;;;;;;;4.93;62.78;97855.22;5113998;28;20203;-66
2023/11/24 11:02:15;;;;;;;4.30;1.53;;;;;;;4.95;63.25;97850.09;5112325;27;20334;-62
2023/11/24 11:04:55;;;;;;;4.67;1.47;;;;;;;4.98;63.18;97861.06;5105169;27;20218;-66
2023/11/24 11:07:30;;;;;;;5.50;1.60;;;;;;;4.89;61.07;97868.09;5103551;27;20215;-66
2023/11/24 11:10:12;;;;;;;4.20;1.00;;;;;;;4.87;60.30;97872.41;5110546;27;20211;-66
2023/11/24 11:12:49;;;;;;;3.73;1.13;;;;;;;4.92;60.26;97875.69;5103538;27;20217;-67
2023/11/24 11:15:23;;;;;;;6.10;1.30;;;;;;;4.96;61.20;97877.28;5110681;27;20611;-65
2023/11/24 11:18:07;;;;;;;4.90;1.30;;;;;;;4.90;59.52;97862.13;5106259;28;20620;-67
2023/11/24 11:20:38;;;;;;;1.80;1.10;;;;;;;4.80;59.36;97872.56;5106805;27;20270;-65
2023/11/24 11:23:08;;;;;;;2.53;1.20;;;;;;;4.74;60.20;97852.28;5103465;28;20222;-66
2023/11/24 11:25:43;;;;;;;4.20;1.17;;;;;;;4.71;59.35;97862.53;5113357;28;20231;-64
2023/11/24 11:28:34;;;;;;;6.50;1.30;;;;;;;4.59;60.16;97856.03;5120967;27;20195;-67
2023/11/24 11:31:37;;;;;;;5.37;1.40;;;;;;;4.49;59.06;97867.34;5102816;27;20204;-66
2023/11/24 11:34:17;;;;;;;3.23;0.87;;;;;;;4.44;58.72;97873.38;5018895;28;20741;-67
2023/11/24 11:36:50;;;;;;;3.87;1.33;;;;;;;4.42;58.80;97870.88;5024028;28;20203;-65
2023/11/24 11:39:20;;;;;;;5.23;1.23;;;;;;;4.43;59.90;97867.44;5078032;27;20287;-67
2023/11/24 11:41:52;;;;;;;4.17;1.20;;;;;;;4.41;60.22;97848.78;5105208;27;21461;-66
2023/11/24 11:44:22;;;;;;;5.03;1.50;;;;;;;4.38;59.95;97858.22;5104736;28;20289;-67
2023/11/24 11:47:15;;;;;;;1.57;1.33;;;;;;;4.29;58.18;97852.44;5102252;28;20219;-66
2023/11/24 11:49:43;;;;;;;3.80;1.23;;;;;;;4.29;58.60;97860.09;5109161;27;20274;-69
2023/11/24 11:52:12;;;;;;;2.43;1.33;;;;;;;4.32;59.32;97865.13;5109620;27;20203;-67